Time;durP1;ratioP1;P1;durP2;ratioP2;P2;SDS_P1;SDS_P2;PMS_P1;PMS_P2;Temp;Humidity;BMP_temperature;BMP_pressure;BME280_temperature;BME280_humidity;BME280_pressure;Samples;Min_cycle;Max_cycle;Signal;HPM_P1;HPM_P2
2021/11/01 00:00:39;;;;;;;4.95;4.32;;;14.20;99.90;;;;;;4958659;28;20032;-80
2021/11/01 00:03:06;;;;;;;6.97;5.15;;;14.20;99.90;;;;;;4954327;28;20051;-81
2021/11/01 00:05:33;;;;;;;5.18;4.68;;;14.20;99.90;;;;;;4953916;28;20057;-80
2021/11/01 00:07:59;;;;;;;6.53;5.65;;;14.10;99.90;;;;;;4954454;28;20461;-79
2021/11/01 00:10:25;;;;;;;5.38;4.07;;;14.10;99.90;;;;;;4952893;28;20038;-80
2021/11/01 00:12:52;;;;;;;5.63;4.90;;;14.10;99.90;;;;;;4953902;28;20055;-80
2021/11/01 00:15:18;;;;;;;6.50;5.20;;;14.00;99.90;;;;;;4954182;28;20039;-80
2021/11/01 00:17:45;;;;;;;5.95;5.35;;;13.90;99.90;;;;;;4968289;28;20503;-79
2021/11/01 00:20:11;;;;;;;8.25;5.22;;;14.00;99.90;;;;;;4953728;28;20035;-80
2021/11/01 00:22:40;;;;;;;6.75;6.07;;;14.00;99.90;;;;;;4954392;28;20052;-80
2021/11/01 00:25:08;;;;;;;6.57;5.38;;;14.00;99.90;;;;;;4954813;28;20039;-80
2021/11/01 00:27:35;;;;;;;11.32;5.78;;;14.00;99.90;;;;;;4953074;28;20472;-80
2021/11/01 00:30:04;;;;;;;5.70;5.20;;;13.90;99.90;;;;;;4954343;28;20492;-81
2021/11/01 00:32:31;;;;;;;7.07;6.35;;;13.90;99.90;;;;;;4953539;28;20476;-80
2021/11/01 00:34:58;;;;;;;6.88;6.00;;;13.80;99.90;;;;;;4954550;28;20036;-80
2021/11/01 00:37:26;;;;;;;7.82;6.53;;;13.80;99.90;;;;;;4953707;28;20035;-80
2021/11/01 00:39:54;;;;;;;7.63;5.72;;;13.70;99.90;;;;;;4956085;28;20047;-80
2021/11/01 00:42:21;;;;;;;6.07;5.47;;;13.70;99.90;;;;;;4957260;28;20051;-80
2021/11/01 00:44:47;;;;;;;6.40;5.78;;;13.60;99.90;;;;;;4957973;28;20043;-80
2021/11/01 00:47:14;;;;;;;6.03;5.43;;;13.60;99.90;;;;;;4957047;28;20042;-80
2021/11/01 00:49:41;;;;;;;5.55;5.05;;;13.50;99.90;;;;;;4957753;28;20045;-80
2021/11/01 00:52:08;;;;;;;7.30;6.45;;;13.50;99.90;;;;;;4966770;28;20035;-80
2021/11/01 00:54:35;;;;;;;7.55;6.70;;;13.50;99.90;;;;;;4962872;28;20039;-80
2021/11/01 00:57:03;;;;;;;10.18;7.13;;;13.50;99.90;;;;;;4957321;28;20039;-80
2021/11/01 00:59:29;;;;;;;9.85;6.50;;;13.50;99.90;;;;;;4956851;28;20038;-80
2021/11/01 01:01:56;;;;;;;8.27;5.93;;;13.40;99.90;;;;;;4957145;28;20050;-81
2021/11/01 01:04:24;;;;;;;7.32;6.20;;;13.30;99.90;;;;;;4956796;28;20034;-82
2021/11/01 01:06:51;;;;;;;7.35;6.70;;;13.30;99.90;;;;;;4956516;28;20047;-81
2021/11/01 01:09:17;;;;;;;3.58;2.00;;;13.30;99.90;;;;;;4960699;28;20034;-81
2021/11/01 01:11:44;;;;;;;2.33;1.70;;;13.30;99.90;;;;;;4969499;28;20043;-81
2021/11/01 01:14:11;;;;;;;1.73;0.93;;;13.30;99.90;;;;;;4956235;28;20035;-82
2021/11/01 01:16:43;;;;;;;3.47;1.15;;;13.30;99.90;;;;;;4961594;28;20389;-80
2021/11/01 01:19:22;;;;;;;1.27;0.57;;;13.30;99.90;;;;;;4973736;28;20038;-80
2021/11/01 01:24:34;;;;;;;2.38;0.52;;;13.30;99.50;;;;;;4956901;28;20035;-78
2021/11/01 01:27:00;;;;;;;0.90;0.57;;;13.20;99.80;;;;;;4956687;28;20027;-80
2021/11/01 01:29:26;;;;;;;2.08;0.70;;;13.00;99.90;;;;;;4964824;28;20469;-79
2021/11/01 01:31:53;;;;;;;2.78;1.10;;;12.80;99.90;;;;;;4956267;28;20046;-80
2021/11/01 01:34:19;;;;;;;2.85;1.05;;;12.60;99.90;;;;;;4956384;28;20366;-80
2021/11/01 01:36:46;;;;;;;1.88;0.93;;;12.40;99.90;;;;;;4971191;28;20058;-80
2021/11/01 01:39:12;;;;;;;3.15;1.45;;;12.30;99.90;;;;;;4964189;28;20062;-82
2021/11/01 01:41:45;;;;;;;3.90;1.30;;;12.20;99.90;;;;;;4971703;28;20039;-82
2021/11/01 01:44:13;;;;;;;2.92;1.00;;;12.10;99.90;;;;;;4955199;28;20046;-83
2021/11/01 01:46:39;;;;;;;2.30;1.13;;;12.00;99.90;;;;;;4964875;28;20384;-81
2021/11/01 01:49:06;;;;;;;6.53;2.00;;;12.00;99.90;;;;;;4956857;28;20046;-80
2021/11/01 01:51:32;;;;;;;9.50;1.90;;;11.90;99.90;;;;;;4971886;28;20039;-79
2021/11/01 01:54:00;;;;;;;4.13;1.67;;;11.80;99.90;;;;;;4959640;28;20039;-81
2021/11/01 01:56:27;;;;;;;6.32;2.08;;;11.80;99.90;;;;;;4955930;28;20035;-81
2021/11/01 01:58:57;;;;;;;2.50;1.80;;;11.70;99.90;;;;;;4956046;28;20038;-81
2021/11/01 02:01:27;;;;;;;2.22;1.70;;;11.70;99.90;;;;;;4953591;28;20047;-80
2021/11/01 02:03:54;;;;;;;7.05;2.42;;;11.70;99.90;;;;;;4957620;28;20035;-80
2021/11/01 02:06:51;;;;;;;4.90;2.45;;;11.60;99.90;;;;;;4956018;28;20039;-80
2021/11/01 02:09:30;;;;;;;4.63;1.70;;;11.60;99.90;;;;;;4955192;28;20040;-80
2021/11/01 02:12:08;;;;;;;4.75;1.83;;;11.50;99.90;;;;;;4964609;28;20047;-81
2021/11/01 02:14:48;;;;;;;2.03;1.48;;;11.50;99.90;;;;;;4955733;28;20043;-80
2021/11/01 02:17:20;;;;;;;4.75;1.60;;;11.40;99.90;;;;;;4955296;28;20031;-80
2021/11/01 02:19:48;;;;;;;4.38;1.77;;;11.40;99.90;;;;;;4955917;28;20043;-80
2021/11/01 02:22:30;;;;;;;4.90;1.98;;;11.30;99.90;;;;;;4970156;28;20054;-80
2021/11/01 02:25:07;;;;;;;4.50;1.75;;;11.30;99.90;;;;;;4955658;28;20035;-80
2021/11/01 02:27:37;;;;;;;5.30;2.20;;;11.30;99.90;;;;;;4972667;28;20621;-80
2021/11/01 02:30:06;;;;;;;3.80;1.97;;;11.30;99.90;;;;;;4968292;28;20058;-80
2021/11/01 02:32:34;;;;;;;3.08;2.17;;;11.20;99.90;;;;;;4955697;28;20286;-80
2021/11/01 02:35:01;;;;;;;3.60;2.05;;;11.30;99.90;;;;;;4962682;28;20031;-80
2021/11/01 02:37:28;;;;;;;5.45;2.38;;;11.20;99.90;;;;;;4954172;28;20044;-80
2021/11/01 02:39:56;;;;;;;8.52;2.38;;;11.20;99.90;;;;;;4970367;28;20038;-81
2021/11/01 02:42:26;;;;;;;5.82;2.75;;;11.10;99.90;;;;;;4954873;29;20046;-81
2021/11/01 02:45:12;;;;;;;6.00;2.63;;;11.10;99.90;;;;;;4969778;28;20043;-80
2021/11/01 02:47:39;;;;;;;3.67;2.35;;;11.10;99.90;;;;;;4955579;28;20040;-80
2021/11/01 02:50:08;;;;;;;8.18;2.15;;;11.10;99.90;;;;;;4963972;28;20046;-80
2021/11/01 02:52:35;;;;;;;6.15;2.35;;;11.10;99.90;;;;;;4968938;28;20058;-80
2021/11/01 02:55:05;;;;;;;6.18;2.70;;;11.00;99.90;;;;;;4955181;28;20039;-78
2021/11/01 02:57:32;;;;;;;6.07;2.08;;;11.10;99.90;;;;;;4955419;28;20266;-79
2021/11/01 02:59:59;;;;;;;4.72;3.70;;;11.00;99.90;;;;;;4964900;28;20034;-78
2021/11/01 03:02:25;;;;;;;3.10;2.63;;;11.00;99.90;;;;;;4966903;28;20038;-79
2021/11/01 03:04:51;;;;;;;11.75;3.42;;;11.00;99.90;;;;;;4958693;28;20469;-79
2021/11/01 03:07:18;;;;;;;3.40;1.92;;;11.00;99.90;;;;;;4954411;28;20027;-80
2021/11/01 03:09:46;;;;;;;5.32;2.78;;;11.00;99.90;;;;;;4955370;28;20031;-80
2021/11/01 03:12:15;;;;;;;7.10;2.38;;;11.00;99.90;;;;;;4954540;28;20055;-79
2021/11/01 03:14:51;;;;;;;5.63;2.28;;;11.00;99.90;;;;;;4963182;28;20047;-81
2021/11/01 03:17:22;;;;;;;4.53;2.30;;;10.90;99.90;;;;;;4968042;28;20038;-79
2021/11/01 03:20:00;;;;;;;8.32;2.15;;;10.90;99.90;;;;;;4954776;28;20039;-79
2021/11/01 03:22:35;;;;;;;5.15;1.92;;;10.90;99.90;;;;;;4954723;28;20047;-78
2021/11/01 03:25:05;;;;;;;3.50;2.10;;;10.90;99.90;;;;;;4954897;28;20408;-78
2021/11/01 03:27:37;;;;;;;7.53;1.92;;;10.90;99.90;;;;;;4961187;28;20037;-79
2021/11/01 03:30:04;;;;;;;2.58;1.55;;;10.90;99.90;;;;;;4958336;28;20125;-77
2021/11/01 03:32:32;;;;;;;9.90;2.03;;;11.00;99.90;;;;;;4954127;28;20027;-78
2021/11/01 03:35:01;;;;;;;1.83;1.48;;;11.00;99.90;;;;;;4953225;28;20036;-78
2021/11/01 03:37:29;;;;;;;4.78;1.67;;;10.90;99.90;;;;;;4952896;28;20027;-79
2021/11/01 03:39:56;;;;;;;4.90;1.85;;;10.90;99.90;;;;;;4954467;28;20053;-79
2021/11/01 03:42:24;;;;;;;3.10;1.50;;;11.00;99.90;;;;;;4953797;28;20043;-81
2021/11/01 03:44:57;;;;;;;8.50;2.30;;;10.90;99.90;;;;;;4961855;28;20046;-80
2021/11/01 03:47:25;;;;;;;6.85;2.20;;;11.00;99.90;;;;;;4966158;28;20046;-80
2021/11/01 03:50:03;;;;;;;5.85;1.77;;;11.00;99.90;;;;;;4952928;28;20043;-79
2021/11/01 03:52:34;;;;;;;4.18;1.63;;;11.00;99.90;;;;;;4955125;28;20043;-79
2021/11/01 03:55:02;;;;;;;5.13;1.90;;;11.00;99.90;;;;;;4966246;28;20031;-80
2021/11/01 03:57:28;;;;;;;4.95;1.70;;;11.00;99.90;;;;;;4972101;28;20027;-79
2021/11/01 03:59:55;;;;;;;4.13;1.55;;;11.00;99.90;;;;;;4961284;28;20038;-79
2021/11/01 04:02:21;;;;;;;2.13;1.20;;;11.00;99.90;;;;;;4953646;28;20050;-78
2021/11/01 04:04:51;;;;;;;5.45;1.90;;;11.00;99.90;;;;;;4954353;28;20035;-79
2021/11/01 04:07:18;;;;;;;2.33;1.70;;;11.00;99.90;;;;;;4979528;28;20400;-78
2021/11/01 04:09:44;;;;;;;3.00;1.40;;;11.00;99.90;;;;;;4959116;28;20043;-78
2021/11/01 04:12:12;;;;;;;3.15;1.55;;;11.00;99.90;;;;;;4954718;28;20051;-78
2021/11/01 04:14:43;;;;;;;4.38;1.55;;;11.00;99.90;;;;;;4954778;28;20050;-78
2021/11/01 04:17:22;;;;;;;;;;;11.00;99.90;;;;;;4968950;28;20035;-78
2021/11/01 04:20:08;;;;;;;9.55;7.05;;;11.00;99.90;;;;;;4972928;28;19917;-78
2021/11/01 04:22:36;;;;;;;11.13;10.13;;;11.00;99.90;;;;;;4961855;28;20042;-79
2021/11/01 04:25:03;;;;;;;18.08;15.63;;;10.90;99.90;;;;;;4966962;28;20046;-78
2021/11/01 04:27:29;;;;;;;32.40;29.17;;;10.90;99.90;;;;;;4957653;28;20027;-78
2021/11/01 04:29:57;;;;;;;30.02;26.95;;;10.90;99.90;;;;;;4957881;28;20043;-78
2021/11/01 04:34:58;;;;;;;129.00;115.95;;;10.90;99.90;;;;;;4957245;28;20483;-78
2021/11/01 04:37:25;;;;;;;76.03;59.72;;;10.90;99.90;;;;;;4965677;28;20035;-79
2021/11/01 04:53:26;;;;;;;20.73;16.15;;;10.90;99.90;;;;;;4957603;28;20043;-79
2021/11/01 04:55:53;;;;;;;43.03;38.33;;;10.90;99.90;;;;;;4965009;28;20034;-78
2021/11/01 04:58:19;;;;;;;16.00;10.02;;;10.90;99.90;;;;;;4959536;28;20381;-79
2021/11/01 05:00:47;;;;;;;24.55;21.23;;;10.80;99.90;;;;;;4971942;28;20034;-79
2021/11/01 05:05:47;;;;;;;34.08;30.58;;;10.80;99.90;;;;;;4957611;28;20031;-79
2021/11/01 05:08:15;;;;;;;66.88;59.17;;;10.80;99.90;;;;;;4957236;28;20035;-79
2021/11/01 05:10:44;;;;;;;16.45;9.05;;;10.80;99.90;;;;;;4957268;28;20046;-78
2021/11/01 05:13:25;;;;;;;14.13;12.00;;;10.80;99.90;;;;;;4955601;28;20047;-78
2021/11/01 05:16:17;;;;;;;5.45;3.28;;;10.80;99.90;;;;;;4972433;28;20055;-78
2021/11/01 05:18:46;;;;;;;19.75;15.10;;;10.70;99.90;;;;;;4956796;28;20047;-78
2021/11/01 05:23:54;;;;;;;18.35;15.02;;;10.70;99.90;;;;;;4957406;28;20050;-78
2021/11/01 05:26:33;;;;;;;18.17;13.82;;;10.70;99.90;;;;;;4956466;28;20035;-77
2021/11/01 05:29:04;;;;;;;17.73;12.82;;;10.70;99.90;;;;;;4957601;28;20039;-77
2021/11/01 05:31:31;;;;;;;3.13;2.35;;;10.70;99.90;;;;;;4956821;28;20031;-79
2021/11/01 05:34:13;;;;;;;13.57;11.90;;;10.70;99.90;;;;;;4956745;28;20058;-79
2021/11/01 05:36:40;;;;;;;32.78;29.92;;;10.60;99.90;;;;;;4956208;28;20050;-79
2021/11/01 05:39:07;;;;;;;10.88;9.00;;;10.60;99.90;;;;;;4956699;28;20089;-79
2021/11/01 05:41:34;;;;;;;20.55;17.77;;;10.60;99.90;;;;;;4956439;28;20050;-78
2021/11/01 05:44:00;;;;;;;18.83;16.90;;;10.60;99.90;;;;;;4955257;28;20055;-79
2021/11/01 05:46:34;;;;;;;15.68;12.57;;;10.60;99.90;;;;;;4969465;28;20476;-79
2021/11/01 05:49:02;;;;;;;11.45;6.03;;;10.60;99.90;;;;;;4970656;28;20046;-77
2021/11/01 05:51:29;;;;;;;28.77;25.80;;;10.60;99.90;;;;;;4965281;28;20040;-77
2021/11/01 05:53:59;;;;;;;16.02;13.27;;;10.50;99.90;;;;;;4968863;28;20381;-77
2021/11/01 05:56:39;;;;;;;23.63;21.42;;;10.50;99.90;;;;;;4960734;28;20026;-77
2021/11/01 06:05:00;;;;;;;13.35;8.73;;;10.60;99.90;;;;;;4958689;28;20050;-80
2021/11/01 06:15:23;;;;;;;26.83;24.00;;;10.50;99.90;;;;;;4955774;28;20027;-78
2021/11/01 06:17:50;;;;;;;15.10;11.93;;;10.50;99.90;;;;;;4969464;28;20071;-78
2021/11/01 06:20:17;;;;;;;19.60;17.58;;;10.50;99.90;;;;;;4975505;28;20038;-81
2021/11/01 06:22:44;;;;;;;2.75;1.70;;;10.50;99.90;;;;;;4959447;28;20448;-78
2021/11/01 06:25:13;;;;;;;24.02;19.85;;;10.50;99.90;;;;;;4966142;28;20050;-78
2021/11/01 06:27:39;;;;;;;20.17;15.23;;;10.40;99.90;;;;;;4962149;28;20060;-79
2021/11/01 06:41:01;;;;;;;25.15;21.60;;;10.40;99.90;;;;;;4957206;28;20054;-77
2021/11/01 06:43:33;;;;;;;25.10;21.50;;;10.40;99.90;;;;;;4968673;28;20043;-77
2021/11/01 07:15:34;;;;;;;37.47;25.60;;;10.30;99.90;;;;;;4966201;28;20384;-78
2021/11/01 07:18:26;;;;;;;40.80;27.63;;;10.30;99.90;;;;;;4967673;28;20041;-79
2021/11/01 07:21:19;;;;;;;112.30;73.93;;;10.30;99.90;;;;;;4961206;28;20037;-80
2021/11/01 08:29:31;;;;;;;3.03;1.77;;;10.50;99.90;;;;;;4968127;28;20035;-78
2021/11/01 09:26:58;;;;;;;5.15;2.22;;;10.90;99.90;;;;;;4956906;28;20039;-80
2021/11/01 09:29:53;;;;;;;3.30;2.40;;;11.00;99.90;;;;;;4965578;28;20039;-79
2021/11/01 09:43:08;;;;;;;3.35;1.48;;;11.50;99.90;;;;;;4956925;28;20374;-81
2021/11/01 09:45:37;;;;;;;3.90;0.93;;;11.50;99.90;;;;;;4971261;28;20477;-80
2021/11/01 09:48:04;;;;;;;1.50;0.90;;;11.50;99.90;;;;;;4957171;28;20035;-80
2021/11/01 09:50:32;;;;;;;2.15;1.60;;;11.70;99.90;;;;;;4956564;28;20452;-81
2021/11/01 09:53:02;;;;;;;5.82;4.72;;;11.70;99.90;;;;;;4971708;28;20055;-83
2021/11/01 10:01:13;;;;;;;2.20;1.17;;;11.70;99.90;;;;;;4951550;28;20043;-80
2021/11/01 10:03:46;;;;;;;2.40;1.30;;;11.50;99.90;;;;;;4972741;28;20034;-80
2021/11/01 10:06:32;;;;;;;4.10;2.20;;;11.40;99.90;;;;;;4969866;28;20039;-81
2021/11/01 10:09:05;;;;;;;1.40;1.10;;;11.40;99.90;;;;;;4972828;28;20424;-81
2021/11/01 10:11:38;;;;;;;1.55;0.98;;;11.30;99.90;;;;;;4969699;28;20057;-82
2021/11/01 10:14:07;;;;;;;4.63;1.73;;;11.30;99.90;;;;;;4962499;28;20042;-83
2021/11/01 10:19:32;;;;;;;5.45;1.67;;;11.30;99.90;;;;;;4972203;28;20031;-82
2021/11/01 10:22:02;;;;;;;3.45;1.42;;;11.40;99.90;;;;;;4963475;28;20380;-83
2021/11/01 10:24:38;;;;;;;3.00;1.50;;;11.40;99.90;;;;;;4967428;28;20043;-85
2021/11/01 10:27:15;;;;;;;2.80;1.55;;;11.40;99.90;;;;;;4972890;28;20038;-84
2021/11/01 10:29:53;;;;;;;3.17;1.63;;;11.50;99.90;;;;;;4962976;28;20479;-83
2021/11/01 10:32:44;;;;;;;4.53;1.55;;;11.50;99.90;;;;;;4972537;28;20035;-83
2021/11/01 10:35:19;;;;;;;2.78;1.55;;;11.50;99.90;;;;;;4972745;28;20515;-82
2021/11/01 10:40:45;;;;;;;4.28;1.83;;;11.50;99.90;;;;;;4963251;28;20030;-82
2021/11/01 10:44:20;;;;;;;2.75;1.20;;;11.50;99.90;;;;;;4970185;28;20461;-83
2021/11/01 11:12:01;;;;;;;3.85;2.85;;;12.00;99.90;;;;;;4954377;29;20047;-84
2021/11/01 11:14:41;;;;;;;5.75;3.25;;;12.00;99.90;;;;;;4971059;28;20042;-83
2021/11/01 11:25:21;;;;;;;8.20;4.32;;;12.10;99.90;;;;;;4953214;28;20054;-84
2021/11/01 11:47:44;;;;;;;4.13;2.90;;;12.40;98.30;;;;;;4973091;28;20031;-85
2021/11/01 11:50:20;;;;;;;7.03;5.03;;;12.40;99.00;;;;;;4971267;28;20055;-83
2021/11/01 11:52:47;;;;;;;8.23;2.85;;;12.60;97.30;;;;;;4975026;28;20388;-83
2021/11/01 11:55:21;;;;;;;5.72;3.42;;;12.80;97.70;;;;;;4962076;28;20495;-85
2021/11/01 11:57:59;;;;;;;9.50;5.40;;;13.00;96.30;;;;;;4973112;28;20050;-82
2021/11/01 12:00:29;;;;;;;6.88;4.90;;;13.00;95.30;;;;;;4978029;28;20011;-81
2021/11/01 12:02:57;;;;;;;5.70;3.47;;;12.80;95.70;;;;;;4967721;28;20039;-84
2021/11/01 12:05:34;;;;;;;6.57;3.30;;;12.70;95.80;;;;;;4965773;28;20046;-84
2021/11/01 12:08:09;;;;;;;11.38;4.20;;;12.60;96.40;;;;;;4954263;28;20477;-84
2021/11/01 12:13:56;;;;;;;7.00;3.08;;;12.90;95.30;;;;;;4975323;28;20489;-85
2021/11/01 12:19:05;;;;;;;9.35;6.32;;;12.90;94.90;;;;;;4968850;28;20051;-84
2021/11/01 12:21:41;;;;;;;9.48;4.53;;;12.80;95.30;;;;;;4960095;28;20035;-84
2021/11/01 12:24:13;;;;;;;4.15;1.40;;;12.80;95.20;;;;;;4971274;28;20068;-85
2021/11/01 12:26:43;;;;;;;4.30;3.03;;;12.70;94.90;;;;;;4958201;28;20373;-84
2021/11/01 12:29:12;;;;;;;8.50;2.78;;;12.60;95.00;;;;;;4954376;28;20031;-84
2021/11/01 12:31:39;;;;;;;2.85;1.73;;;12.70;95.30;;;;;;4960884;28;20031;-83
2021/11/01 12:34:21;;;;;;;3.03;1.33;;;12.70;94.50;;;;;;4954991;28;20031;-85
2021/11/01 12:37:09;;;;;;;3.35;2.95;;;12.70;94.70;;;;;;4957504;28;20030;-85
2021/11/01 12:39:38;;;;;;;4.63;2.85;;;12.70;94.70;;;;;;4960129;28;20158;-84
2021/11/01 12:58:37;;;;;;;2.33;1.00;;;13.40;91.50;;;;;;4957437;28;20042;-81
2021/11/01 13:01:09;;;;;;;1.95;0.90;;;13.30;92.20;;;;;;4968807;28;20043;-77
2021/11/01 13:03:35;;;;;;;2.05;1.00;;;13.20;91.90;;;;;;4956030;28;20046;-77
2021/11/01 13:06:19;;;;;;;3.13;1.00;;;13.10;92.20;;;;;;4956236;28;20058;-78
2021/11/01 13:08:48;;;;;;;11.75;8.40;;;12.90;92.30;;;;;;4973485;28;20043;-79
2021/11/01 13:11:51;;;;;;;2.40;1.23;;;12.90;92.10;;;;;;4965375;28;20058;-78
2021/11/01 13:19:33;;;;;;;5.28;1.25;;;13.00;92.30;;;;;;4956278;28;20031;-79
2021/11/01 13:22:15;;;;;;;2.30;0.93;;;12.90;92.00;;;;;;4956706;28;20409;-78
2021/11/01 13:38:40;;;;;;;1.58;0.90;;;12.90;92.30;;;;;;4955880;28;20031;-77
2021/11/01 13:41:21;;;;;;;5.50;1.02;;;12.70;92.40;;;;;;4956641;28;20035;-77
2021/11/01 13:43:48;;;;;;;;;;;12.70;92.60;;;;;;4956174;28;20222;-78
2021/11/01 13:46:15;;;;;;;4.63;1.55;;;12.70;92.90;;;;;;4956310;28;19915;-78
2021/11/01 13:48:42;;;;;;;4.97;1.27;;;12.70;92.80;;;;;;4973240;28;20380;-77
2021/11/01 13:51:11;;;;;;;3.10;2.10;;;12.80;93.10;;;;;;4958947;28;20031;-77
2021/11/01 13:53:58;;;;;;;2.45;1.88;;;12.90;92.60;;;;;;4970435;28;20044;-78
2021/11/01 13:56:31;;;;;;;3.00;1.60;;;13.00;92.70;;;;;;4954437;28;20051;-78
2021/11/01 13:59:03;;;;;;;5.25;3.70;;;12.90;92.10;;;;;;4956190;28;20385;-78
2021/11/01 14:12:30;;;;;;;12.85;10.65;;;13.00;91.50;;;;;;4960841;28;20076;-78
2021/11/01 14:28:20;;;;;;;12.13;8.13;;;14.00;87.30;;;;;;4955974;28;20054;-78
2021/11/01 14:31:11;;;;;;;8.10;4.20;;;13.90;86.80;;;;;;4953882;28;20290;-78
2021/11/01 15:31:02;;;;;;;2.22;1.23;;;12.50;88.20;;;;;;4977629;28;20057;-78
2021/11/01 15:35:26;;;;;;;2.22;1.42;;;12.50;88.00;;;;;;4979511;28;20030;-78
2021/11/01 15:38:49;;;;;;;6.63;1.38;;;12.50;88.50;;;;;;4977571;28;20038;-78
2021/11/01 16:19:41;;;;;;;2.88;1.80;;;11.10;95.40;;;;;;4981052;28;20030;-76
2021/11/01 16:22:08;;;;;;;5.13;2.53;;;11.20;95.20;;;;;;4976745;28;20035;-78
2021/11/01 16:24:35;;;;;;;6.32;2.67;;;11.20;95.50;;;;;;4953290;28;20062;-76
2021/11/01 16:27:03;;;;;;;5.63;1.98;;;11.20;95.70;;;;;;4954049;28;20436;-76
2021/11/01 16:32:40;;;;;;;4.07;1.95;;;11.20;95.90;;;;;;4960390;28;20035;-73
2021/11/01 16:35:07;;;;;;;6.50;3.25;;;11.30;96.00;;;;;;4953694;28;20058;-73
2021/11/01 16:37:46;;;;;;;16.90;4.70;;;11.30;95.70;;;;;;4953585;28;20046;-74
2021/11/01 16:40:13;;;;;;;8.80;4.90;;;11.20;96.20;;;;;;4953925;28;20034;-73
2021/11/01 16:42:42;;;;;;;7.20;3.40;;;11.10;96.30;;;;;;4951887;28;20046;-74
2021/11/01 16:45:36;;;;;;;7.25;4.53;;;11.00;96.40;;;;;;4953959;28;20047;-74
2021/11/01 16:48:02;;;;;;;8.02;4.05;;;10.90;96.90;;;;;;4985812;28;20047;-73
2021/11/01 16:50:28;;;;;;;4.60;2.53;;;10.80;97.20;;;;;;4954266;28;20030;-73
2021/11/01 16:52:55;;;;;;;6.80;4.00;;;10.80;97.20;;;;;;4953188;28;20035;-75
2021/11/01 16:55:25;;;;;;;6.55;4.70;;;10.70;97.20;;;;;;4963041;28;20061;-73
2021/11/01 16:57:59;;;;;;;4.53;2.83;;;10.60;97.70;;;;;;4958527;28;20054;-74
2021/11/01 17:00:30;;;;;;;4.00;2.85;;;10.50;98.10;;;;;;4953683;28;20035;-73
2021/11/01 17:03:13;;;;;;;4.03;2.83;;;10.40;98.40;;;;;;4952867;28;20039;-73
2021/11/01 17:05:52;;;;;;;3.53;2.83;;;10.30;98.90;;;;;;4952887;28;20059;-74
2021/11/01 18:25:08;;;;;;;3.63;2.42;;;9.70;99.90;;;;;;4932402;29;20054;-74
2021/11/01 18:40:25;;;;;;;6.78;6.10;;;9.40;99.90;;;;;;4954861;28;20043;-74
2021/11/01 18:53:23;;;;;;;5.15;4.35;;;9.20;99.90;;;;;;4955024;28;20051;-72
2021/11/01 18:55:55;;;;;;;4.85;3.83;;;9.10;99.90;;;;;;4955552;28;20051;-72
2021/11/01 18:58:26;;;;;;;15.38;8.55;;;9.10;99.90;;;;;;4962365;28;20039;-72
2021/11/01 19:00:57;;;;;;;23.73;20.92;;;9.00;99.90;;;;;;4959976;28;20038;-72
2021/11/01 19:03:26;;;;;;;;;;;8.90;99.90;;;;;;4960792;28;20035;-73
2021/11/01 19:06:02;;;;;;;8.85;6.22;;;8.90;99.90;;;;;;4968240;28;19966;-74
2021/11/01 19:11:25;;;;;;;9.40;4.53;;;8.80;99.90;;;;;;4953840;28;20042;-73
2021/11/01 20:04:07;;;;;;;5.85;3.67;;;8.20;99.90;;;;;;4966417;28;20035;-73
2021/11/01 21:26:36;;;;;;;9.65;8.75;;;7.40;99.90;;;;;;4973117;28;20039;-74
2021/11/01 21:29:03;;;;;;;11.35;9.52;;;7.50;99.90;;;;;;4972038;28;20031;-75
2021/11/01 21:31:29;;;;;;;13.15;8.05;;;7.50;99.90;;;;;;4973682;28;20027;-74
2021/11/01 21:33:57;;;;;;;9.18;8.13;;;7.50;99.90;;;;;;4974264;28;20511;-74
2021/11/01 21:36:24;;;;;;;9.13;8.32;;;7.50;99.90;;;;;;4973458;28;20037;-74
2021/11/01 21:38:55;;;;;;;10.15;8.90;;;7.60;99.90;;;;;;4972319;28;20034;-74
2021/11/01 21:41:22;;;;;;;;;;;7.60;99.90;;;;;;4974945;28;20030;-74
2021/11/01 21:43:51;;;;;;;9.90;8.10;;;7.60;99.90;;;;;;4972868;28;20323;-74
2021/11/01 21:46:17;;;;;;;11.38;9.48;;;7.60;99.90;;;;;;4973898;28;20093;-74
2021/11/01 21:48:45;;;;;;;12.55;9.45;;;7.60;99.90;;;;;;4969324;28;20043;-75
2021/11/01 21:51:15;;;;;;;14.85;10.00;;;7.60;99.90;;;;;;4970646;28;20035;-74
2021/11/01 21:53:51;;;;;;;9.73;8.80;;;7.60;99.90;;;;;;4973060;28;20027;-80
2021/11/01 21:56:17;;;;;;;9.88;8.73;;;7.50;99.90;;;;;;4973534;28;20034;-73
2021/11/01 22:22:42;;;;;;;9.70;8.60;;;7.80;99.90;;;;;;4972051;28;20038;-75
2021/11/01 22:57:33;;;;;;;8.40;7.55;;;6.90;99.90;;;;;;4970278;28;20499;-74
2021/11/01 23:00:01;;;;;;;12.45;7.82;;;6.90;99.90;;;;;;4971894;28;20045;-74
2021/11/01 23:02:28;;;;;;;10.23;7.70;;;6.80;99.90;;;;;;4969802;28;20479;-75
2021/11/01 23:05:15;;;;;;;8.05;7.45;;;6.80;99.90;;;;;;4972150;28;20046;-74
2021/11/01 23:32:43;;;;;;;8.80;7.63;;;6.90;99.90;;;;;;4971091;28;20027;-78
2021/11/01 23:35:10;;;;;;;8.07;7.32;;;6.90;99.90;;;;;;4972371;28;20057;-74
2021/11/01 23:37:36;;;;;;;8.32;7.53;;;7.00;99.90;;;;;;4971862;28;20054;-75
2021/11/01 23:40:03;;;;;;;8.40;7.68;;;7.10;99.90;;;;;;4968132;28;20253;-75
2021/11/01 23:42:30;;;;;;;8.55;7.75;;;7.10;99.90;;;;;;4970720;28;20469;-75
2021/11/01 23:44:56;;;;;;;9.48;8.57;;;7.10;99.90;;;;;;4969885;28;20041;-74
2021/11/01 23:47:23;;;;;;;10.07;8.98;;;7.10;99.90;;;;;;4971584;28;20037;-76
2021/11/01 23:49:50;;;;;;;8.77;7.97;;;7.10;99.90;;;;;;4969332;28;20477;-75
2021/11/01 23:52:17;;;;;;;11.75;8.60;;;7.00;99.90;;;;;;4969299;28;20030;-75
2021/11/01 23:54:43;;;;;;;8.68;7.88;;;7.00;99.90;;;;;;4968769;28;20579;-80
2021/11/01 23:57:19;;;;;;;10.10;8.30;;;7.00;99.90;;;;;;4969444;28;20491;-75
2021/11/01 23:59:49;;;;;;;9.27;8.30;;;7.00;99.90;;;;;;4970709;28;20046;-76
